TimeEST,TemperatureF,Dew PointF,Humidity,Sea Level PressureIn,VisibilityMPH,Wind Direction,Wind SpeedMPH,Gust SpeedMPH,PrecipitationIn,Events,Conditions,WindDirDegrees,DateUTC
12:15 AM,27.9,26.1,93,30.51,10.0,Calm,Calm,-,N/A,,Clear,0,2013-01-19 05:15:00
12:35 AM,27.1,25.3,93,30.51,10.0,Calm,Calm,-,N/A,,Clear,0,2013-01-19 05:35:00
12:55 AM,26.6,24.8,93,30.51,10.0,Calm,Calm,-,N/A,,Clear,0,2013-01-19 05:55:00
1:15 AM,27.1,25.3,93,30.51,10.0,Calm,Calm,-,N/A,,Clear,0,2013-01-19 06:15:00
1:35 AM,26.6,24.8,93,30.51,10.0,Calm,Calm,-,N/A,,Clear,0,2013-01-19 06:35:00
1:55 AM,27.0,25.2,93,30.51,10.0,Calm,Calm,-,N/A,,Clear,0,2013-01-19 06:55:00
2:15 AM,26.2,24.4,93,30.50,10.0,Calm,Calm,-,N/A,,Clear,0,2013-01-19 07:15:00
2:35 AM,25.2,23.2,92,30.50,10.0,Calm,Calm,-,N/A,,Clear,0,2013-01-19 07:35:00
2:55 AM,25.7,23.9,93,30.50,10.0,Calm,Calm,-,N/A,,Clear,0,2013-01-19 07:55:00
3:15 AM,26.2,24.4,93,30.49,10.0,Calm,Calm,-,N/A,,Clear,0,2013-01-19 08:15:00
3:35 AM,27.0,25.0,92,30.49,10.0,Calm,Calm,-,N/A,,Clear,0,2013-01-19 08:35:00
3:55 AM,26.4,24.4,92,30.49,10.0,Calm,Calm,-,N/A,,Clear,0,2013-01-19 08:55:00
4:15 AM,26.4,24.3,92,30.49,10.0,Calm,Calm,-,N/A,,Clear,0,2013-01-19 09:15:00
4:35 AM,25.0,22.6,91,30.49,10.0,Calm,Calm,-,N/A,,Clear,0,2013-01-19 09:35:00
4:55 AM,24.3,21.9,91,30.48,10.0,Calm,Calm,-,N/A,,Clear,0,2013-01-19 09:55:00
5:15 AM,24.1,21.7,91,30.48,10.0,Calm,Calm,-,N/A,,Clear,0,2013-01-19 10:15:00
5:35 AM,24.4,22.1,91,30.48,10.0,Calm,Calm,-,N/A,,Clear,0,2013-01-19 10:35:00
5:55 AM,23.9,21.4,90,30.48,10.0,Calm,Calm,-,N/A,,Clear,0,2013-01-19 10:55:00
6:15 AM,23.5,21.2,91,30.48,10.0,Calm,Calm,-,N/A,,Clear,0,2013-01-19 11:15:00
6:35 AM,23.2,21.0,91,30.48,10.0,Calm,Calm,-,N/A,,Clear,0,2013-01-19 11:35:00
7:35 AM,22.8,20.5,91,30.47,10.0,Calm,Calm,-,N/A,,Clear,0,2013-01-19 12:35:00
7:55 AM,23.7,21.4,91,30.47,10.0,Calm,Calm,-,N/A,,Clear,0,2013-01-19 12:55:00
8:15 AM,25.3,23.0,91,30.48,10.0,Calm,Calm,-,N/A,,Clear,0,2013-01-19 13:15:00
8:55 AM,30.4,28.2,92,30.49,10.0,Calm,Calm,-,N/A,,Clear,0,2013-01-19 13:55:00
9:15 AM,31.5,28.9,90,30.49,10.0,Calm,Calm,-,N/A,,Clear,0,2013-01-19 14:15:00
9:35 AM,33.3,30.2,89,30.49,10.0,Calm,Calm,-,N/A,,Clear,0,2013-01-19 14:35:00
10:35 AM,39.6,32.5,76,30.48,10.0,Calm,Calm,-,N/A,,Clear,0,2013-01-19 15:35:00
10:55 AM,41.2,31.6,69,30.47,10.0,Calm,Calm,-,N/A,,Clear,0,2013-01-19 15:55:00
11:15 AM,43.7,31.5,62,30.45,10.0,Calm,Calm,-,N/A,,Clear,0,2013-01-19 16:15:00
11:35 AM,46.2,28.6,50,30.43,10.0,SW,3.5,-,N/A,,Clear,220,2013-01-19 16:35:00
12:15 PM,48.7,23.7,38,30.39,10.0,WSW,3.5,-,N/A,,Clear,240,2013-01-19 17:15:00
12:35 PM,49.8,24.3,37,30.37,10.0,West,3.5,-,N/A,,Clear,260,2013-01-19 17:35:00
12:55 PM,51.3,25.0,36,30.35,10.0,SW,3.5,-,N/A,,Clear,220,2013-01-19 17:55:00
1:15 PM,52.2,22.8,32,30.34,10.0,SW,4.6,-,N/A,,Clear,220,2013-01-19 18:15:00
1:35 PM,52.9,24.8,34,30.33,10.0,SSW,5.8,-,N/A,,Clear,200,2013-01-19 18:35:00
1:55 PM,52.7,21.9,30,30.32,10.0,South,5.8,-,N/A,,Clear,180,2013-01-19 18:55:00
2:15 PM,53.6,22.3,30,30.31,10.0,South,3.5,-,N/A,,Clear,180,2013-01-19 19:15:00
2:35 PM,54.3,21.7,28,30.29,10.0,SSW,3.5,-,N/A,,Clear,210,2013-01-19 19:35:00
2:55 PM,55.2,19.6,25,30.28,10.0,Calm,Calm,-,N/A,,Clear,0,2013-01-19 19:55:00
3:15 PM,55.2,23.2,29,30.27,10.0,South,4.6,-,N/A,,Clear,190,2013-01-19 20:15:00
3:35 PM,56.1,23.0,28,30.27,10.0,SE,4.6,-,N/A,,Clear,140,2013-01-19 20:35:00
3:55 PM,56.3,23.0,28,30.27,10.0,SSW,3.5,-,N/A,,Clear,200,2013-01-19 20:55:00
4:15 PM,56.3,24.3,29,30.26,10.0,South,5.8,-,N/A,,Clear,170,2013-01-19 21:15:00
4:35 PM,55.9,23.2,28,30.25,10.0,SSW,4.6,-,N/A,,Clear,200,2013-01-19 21:35:00
4:55 PM,55.2,25.0,31,30.24,10.0,Calm,Calm,-,N/A,,Clear,0,2013-01-19 21:55:00
5:15 PM,54.1,25.5,33,30.24,10.0,South,3.5,-,N/A,,Clear,190,2013-01-19 22:15:00
5:35 PM,50.4,30.4,46,30.24,10.0,Calm,Calm,-,N/A,,Clear,0,2013-01-19 22:35:00
5:55 PM,45.9,33.1,61,30.23,10.0,Calm,Calm,-,N/A,,Clear,0,2013-01-19 22:55:00
6:15 PM,44.4,32.4,63,30.23,10.0,Calm,Calm,-,N/A,,Clear,0,2013-01-19 23:15:00
6:35 PM,43.2,33.1,68,30.24,10.0,Calm,Calm,-,N/A,,Clear,0,2013-01-19 23:35:00
6:55 PM,43.9,35.4,72,30.24,10.0,SSW,3.5,-,N/A,,Clear,200,2013-01-19 23:55:00
7:15 PM,41.0,34.7,78,30.25,10.0,South,3.5,-,N/A,,Clear,180,2013-01-20 00:15:00
7:35 PM,42.3,34.2,73,30.25,10.0,Calm,Calm,-,N/A,,Clear,0,2013-01-20 00:35:00
7:55 PM,43.2,33.6,69,30.25,10.0,South,3.5,-,N/A,,Clear,190,2013-01-20 00:55:00
8:15 PM,45.0,33.4,64,30.24,10.0,South,3.5,-,N/A,,Clear,190,2013-01-20 01:15:00
8:35 PM,44.2,33.8,67,30.24,10.0,South,3.5,-,N/A,,Clear,190,2013-01-20 01:35:00
8:55 PM,44.1,33.3,66,30.24,10.0,South,3.5,-,N/A,,Clear,190,2013-01-20 01:55:00
9:15 PM,43.2,33.8,70,30.23,10.0,South,4.6,-,N/A,,Clear,190,2013-01-20 02:15:00
9:35 PM,43.5,33.4,68,30.23,10.0,South,3.5,-,N/A,,Clear,190,2013-01-20 02:35:00
9:55 PM,43.5,33.3,67,30.22,10.0,SSW,3.5,-,N/A,,Clear,200,2013-01-20 02:55:00
10:15 PM,42.1,33.8,72,30.21,10.0,SSW,3.5,-,N/A,,Clear,200,2013-01-20 03:15:00
10:35 PM,42.4,33.4,70,30.21,10.0,SSW,4.6,-,N/A,,Clear,210,2013-01-20 03:35:00
10:55 PM,41.9,33.6,72,30.20,10.0,SSW,4.6,-,N/A,,Clear,200,2013-01-20 03:55:00
11:15 PM,42.6,33.4,70,30.19,10.0,South,3.5,-,N/A,,Clear,190,2013-01-20 04:15:00
11:35 PM,42.8,33.1,69,30.19,10.0,Calm,Calm,-,N/A,,Clear,0,2013-01-20 04:35:00
11:55 PM,40.1,33.8,78,30.19,10.0,Calm,Calm,-,N/A,,Clear,0,2013-01-20 04:55:00